Time;durP1;ratioP1;P1;durP2;ratioP2;P2;SDS_P1;SDS_P2;PMS_P1;PMS_P2;Temp;Humidity;BMP_temperature;BMP_pressure;BME280_temperature;BME280_humidity;BME280_pressure;Samples;Min_cycle;Max_cycle;Signal;HPM_P1;HPM_P2
2023/09/11 00:00:18;;;;;;;22.33;15.30;;;;;;;;;;6289088;28;20045;-60
2023/09/11 00:03:39;;;;;;;21.15;15.18;;;;;;;;;;6288996;28;20137;-61
2023/09/11 00:06:40;;;;;;;23.27;16.67;;;;;;;;;;6288946;28;20502;-61
2023/09/11 00:09:40;;;;;;;21.80;15.07;;;;;;;;;;6287029;28;20048;-61
2023/09/11 00:12:41;;;;;;;23.77;15.90;;;;;;;;;;6288676;28;20178;-61
2023/09/11 00:15:41;;;;;;;21.47;14.87;;;;;;;;;;6287793;28;20041;-61
2023/09/11 00:18:42;;;;;;;26.77;18.73;;;;;;;;;;6286948;28;20056;-61
2023/09/11 00:21:43;;;;;;;30.30;20.27;;;;;;;;;;6290786;28;20048;-61
2023/09/11 00:24:43;;;;;;;30.43;18.90;;;;;;;;;;6288379;28;20040;-61
2023/09/11 00:27:44;;;;;;;30.07;18.70;;;;;;;;;;6285819;28;20045;-60
2023/09/11 00:30:45;;;;;;;25.07;17.03;;;;;;;;;;6289489;28;20055;-61
2023/09/11 00:33:45;;;;;;;28.10;18.57;;;;;;;;;;6286327;28;20064;-61
2023/09/11 00:36:46;;;;;;;25.10;17.83;;;;;;;;;;6287568;28;20519;-60
2023/09/11 00:39:46;;;;;;;29.80;19.17;;;;;;;;;;6288681;28;20403;-62
2023/09/11 00:42:47;;;;;;;29.30;20.17;;;;;;;;;;6288033;28;20315;-61
2023/09/11 00:45:50;;;;;;;29.63;20.20;;;;;;;;;;6286225;28;20055;-61
2023/09/11 00:48:53;;;;;;;32.83;21.67;;;;;;;;;;6287333;28;20044;-61
2023/09/11 00:51:55;;;;;;;31.88;21.52;;;;;;;;;;6285778;28;20135;-61
2023/09/11 00:54:56;;;;;;;32.13;21.48;;;;;;;;;;6286105;28;20066;-60
2023/09/11 00:57:57;;;;;;;31.98;20.67;;;;;;;;;;6287981;28;20045;-61
2023/09/11 01:00:58;;;;;;;26.03;17.90;;;;;;;;;;6287983;28;20419;-61
2023/09/11 01:03:59;;;;;;;28.65;19.67;;;;;;;;;;6285615;28;20040;-61
2023/09/11 01:07:00;;;;;;;28.50;19.33;;;;;;;;;;6286104;28;20046;-61
2023/09/11 01:10:05;;;;;;;28.90;19.60;;;;;;;;;;6287837;28;20526;-61
2023/09/11 01:13:06;;;;;;;29.48;19.83;;;;;;;;;;6283593;28;20171;-61
2023/09/11 01:16:12;;;;;;;31.87;19.90;;;;;;;;;;6284340;28;20040;-60
2023/09/11 01:19:41;;;;;;;31.60;19.83;;;;;;;;;;6287495;28;20045;-61
2023/09/11 01:22:47;;;;;;;29.77;20.63;;;;;;;;;;6285761;28;20059;-60
2023/09/11 01:26:06;;;;;;;29.63;20.38;;;;;;;;;;6284652;28;20032;-62
2023/09/11 01:29:09;;;;;;;29.88;20.38;;;;;;;;;;6287409;28;20068;-61
2023/09/11 01:32:10;;;;;;;33.70;21.73;;;;;;;;;;6286738;28;20037;-61
2023/09/11 01:35:11;;;;;;;30.73;20.85;;;;;;;;;;6287218;28;20184;-61
2023/09/11 01:38:12;;;;;;;28.30;18.57;;;;;;;;;;6287149;28;20052;-61
2023/09/11 01:41:15;;;;;;;29.87;19.83;;;;;;;;;;6290885;28;20102;-60
2023/09/11 01:44:30;;;;;;;28.20;20.02;;;;;;;;;;6290855;28;20392;-63
2023/09/11 01:47:33;;;;;;;30.48;19.95;;;;;;;;;;6292044;28;20044;-61
2023/09/11 01:50:36;;;;;;;28.52;18.95;;;;;;;;;;6291455;28;20037;-61
2023/09/11 01:53:37;;;;;;;30.70;20.55;;;;;;;;;;6292216;28;20052;-60
2023/09/11 01:56:37;;;;;;;33.53;20.70;;;;;;;;;;6292182;28;20037;-60
2023/09/11 01:59:38;;;;;;;27.73;18.65;;;;;;;;;;6293172;28;20473;-61
2023/09/11 02:02:39;;;;;;;28.42;17.92;;;;;;;;;;6291607;28;20041;-61
2023/09/11 02:05:39;;;;;;;30.23;20.93;;;;;;;;;;6290179;28;20423;-61
2023/09/11 02:08:40;;;;;;;31.57;20.00;;;;;;;;;;6274889;28;20143;-60
2023/09/11 02:11:40;;;;;;;59.75;20.42;;;;;;;;;;6290890;28;20045;-60
2023/09/11 02:14:41;;;;;;;32.73;18.97;;;;;;;;;;6281461;28;20131;-60
2023/09/11 02:17:41;;;;;;;31.00;19.92;;;;;;;;;;6289549;28;20688;-60
2023/09/11 02:20:47;;;;;;;26.60;18.88;;;;;;;;;;6290143;28;20147;-61
2023/09/11 02:23:48;;;;;;;28.35;18.40;;;;;;;;;;6289908;28;20064;-62
2023/09/11 02:26:48;;;;;;;27.63;19.45;;;;;;;;;;6291376;28;20059;-60
2023/09/11 02:29:49;;;;;;;27.00;18.23;;;;;;;;;;6291105;28;20051;-61
2023/09/11 02:32:50;;;;;;;31.63;21.20;;;;;;;;;;6289246;28;20036;-60
2023/09/11 02:35:57;;;;;;;27.47;18.50;;;;;;;;;;6290954;28;20387;-60
2023/09/11 02:38:58;;;;;;;33.67;18.88;;;;;;;;;;6287024;28;20376;-60
2023/09/11 02:41:58;;;;;;;27.27;17.80;;;;;;;;;;6292551;28;20036;-60
2023/09/11 02:44:59;;;;;;;30.05;18.83;;;;;;;;;;6289150;28;20097;-61
2023/09/11 02:47:59;;;;;;;28.77;18.85;;;;;;;;;;6290894;28;20067;-61
2023/09/11 02:51:00;;;;;;;31.20;20.52;;;;;;;;;;6291980;28;20041;-61
2023/09/11 02:54:01;;;;;;;43.88;23.98;;;;;;;;;;6290862;28;20041;-60
2023/09/11 02:57:01;;;;;;;34.50;20.70;;;;;;;;;;6290676;28;20476;-62
2023/09/11 03:00:08;;;;;;;37.05;22.48;;;;;;;;;;6290983;28;20086;-61
2023/09/11 03:03:09;;;;;;;36.08;22.40;;;;;;;;;;6290530;28;20162;-60
2023/09/11 03:06:09;;;;;;;32.95;21.60;;;;;;;;;;6290460;28;20044;-60
2023/09/11 03:09:10;;;;;;;34.05;21.73;;;;;;;;;;6289896;28;20170;-60
2023/09/11 03:12:11;;;;;;;34.72;21.35;;;;;;;;;;6288138;28;20059;-61
2023/09/11 03:15:11;;;;;;;29.87;20.13;;;;;;;;;;6288572;28;20388;-60
2023/09/11 03:18:12;;;;;;;31.60;20.60;;;;;;;;;;6271659;28;20056;-61
2023/09/11 03:21:13;;;;;;;36.85;20.40;;;;;;;;;;6289744;28;20048;-61
2023/09/11 03:24:13;;;;;;;30.93;20.10;;;;;;;;;;6289832;28;20055;-60
2023/09/11 03:27:14;;;;;;;32.00;19.50;;;;;;;;;;6289920;28;20040;-60
2023/09/11 03:30:15;;;;;;;29.45;18.55;;;;;;;;;;6289686;28;20044;-60
2023/09/11 03:33:16;;;;;;;27.58;18.42;;;;;;;;;;6289360;28;20040;-60
2023/09/11 03:36:17;;;;;;;26.90;18.00;;;;;;;;;;6290146;28;20033;-60
2023/09/11 03:39:18;;;;;;;29.75;19.40;;;;;;;;;;6287176;28;20499;-61
2023/09/11 03:42:18;;;;;;;28.50;17.83;;;;;;;;;;6287374;28;20067;-61
2023/09/11 03:45:19;;;;;;;27.45;17.80;;;;;;;;;;6289442;28;20078;-60
2023/09/11 03:51:38;;;;;;;25.52;18.20;;;;;;;;;;6409528;22;20045;-59
2023/09/11 03:54:39;;;;;;;24.23;17.02;;;;;;;;;;6242541;28;20151;-59
2023/09/11 03:57:40;;;;;;;26.27;17.67;;;;;;;;;;6247128;28;20114;-60
2023/09/11 04:00:40;;;;;;;29.88;18.85;;;;;;;;;;6245624;28;20139;-58
2023/09/11 04:03:42;;;;;;;25.50;17.33;;;;;;;;;;6253928;28;20095;-59
2023/09/11 04:06:42;;;;;;;25.67;17.30;;;;;;;;;;6242269;28;20191;-60
2023/09/11 04:09:43;;;;;;;24.85;17.70;;;;;;;;;;6242560;28;20389;-59
2023/09/11 04:12:44;;;;;;;24.42;17.33;;;;;;;;;;6242274;28;20535;-59
2023/09/11 04:15:44;;;;;;;23.00;16.38;;;;;;;;;;6243298;28;20095;-59
2023/09/11 04:18:45;;;;;;;22.45;16.52;;;;;;;;;;6249831;28;20044;-59
2023/09/11 04:21:45;;;;;;;26.63;18.52;;;;;;;;;;6242761;28;20429;-60
2023/09/11 04:24:46;;;;;;;31.60;17.70;;;;;;;;;;6244356;28;20075;-59
2023/09/11 04:27:46;;;;;;;26.85;17.65;;;;;;;;;;6244588;28;20041;-60
2023/09/11 04:30:47;;;;;;;26.20;18.05;;;;;;;;;;6241914;28;20280;-59
2023/09/11 04:33:47;;;;;;;31.23;18.73;;;;;;;;;;6242433;28;20068;-59
2023/09/11 04:36:48;;;;;;;33.75;19.10;;;;;;;;;;6242125;28;20050;-60
2023/09/11 04:39:48;;;;;;;30.77;19.08;;;;;;;;;;6242765;28;20049;-59
2023/09/11 04:42:49;;;;;;;33.40;19.15;;;;;;;;;;6241349;28;20115;-59
2023/09/11 04:45:50;;;;;;;33.53;20.40;;;;;;;;;;6238416;28;20038;-60
2023/09/11 04:48:50;;;;;;;32.63;19.92;;;;;;;;;;6238753;28;20053;-59
2023/09/11 04:51:52;;;;;;;39.38;20.63;;;;;;;;;;6241687;28;20056;-60
2023/09/11 04:54:53;;;;;;;41.58;19.73;;;;;;;;;;6254871;28;20499;-61
2023/09/11 04:57:53;;;;;;;41.75;20.50;;;;;;;;;;6247183;28;20079;-59
2023/09/11 05:00:54;;;;;;;34.35;20.13;;;;;;;;;;6254984;28;20045;-59
2023/09/11 05:03:55;;;;;;;28.73;19.50;;;;;;;;;;6247284;28;20049;-60
2023/09/11 05:06:55;;;;;;;29.47;18.03;;;;;;;;;;6242020;28;20075;-60
2023/09/11 05:09:56;;;;;;;23.42;17.45;;;;;;;;;;6253629;28;20041;-61
2023/09/11 05:12:57;;;;;;;25.58;18.05;;;;;;;;;;6248987;28;20056;-59
2023/09/11 05:15:57;;;;;;;30.70;19.00;;;;;;;;;;6245168;28;20396;-60
2023/09/11 05:18:58;;;;;;;27.17;19.50;;;;;;;;;;6238243;28;20045;-60
2023/09/11 05:21:59;;;;;;;27.13;18.23;;;;;;;;;;6239937;28;20092;-60
2023/09/11 05:25:00;;;;;;;27.00;19.03;;;;;;;;;;6239130;28;20527;-60
2023/09/11 05:28:00;;;;;;;27.95;18.00;;;;;;;;;;6242630;28;20052;-60
2023/09/11 05:31:01;;;;;;;26.17;18.38;;;;;;;;;;6250823;28;20575;-60
2023/09/11 05:34:01;;;;;;;30.90;19.73;;;;;;;;;;6236565;28;20037;-60
2023/09/11 05:37:02;;;;;;;30.05;20.00;;;;;;;;;;6241609;28;20537;-60
2023/09/11 05:40:07;;;;;;;38.35;19.85;;;;;;;;;;6241423;28;20475;-61
2023/09/11 05:43:07;;;;;;;32.75;18.92;;;;;;;;;;6239122;28;20204;-61
2023/09/11 05:46:08;;;;;;;29.05;18.67;;;;;;;;;;6239604;28;20516;-60
2023/09/11 05:49:08;;;;;;;32.97;21.30;;;;;;;;;;6239205;28;20067;-62
2023/09/11 05:52:09;;;;;;;30.73;20.50;;;;;;;;;;6249838;28;20381;-61
2023/09/11 05:55:10;;;;;;;36.80;20.07;;;;;;;;;;6253261;28;20044;-60
2023/09/11 05:58:10;;;;;;;38.75;21.38;;;;;;;;;;6242558;28;20045;-61
2023/09/11 06:01:13;;;;;;;33.33;20.50;;;;;;;;;;6247554;28;20049;-60
2023/09/11 06:04:14;;;;;;;36.83;21.15;;;;;;;;;;6249490;28;20045;-60
2023/09/11 06:07:16;;;;;;;37.90;21.63;;;;;;;;;;6244203;28;20504;-60
2023/09/11 06:10:17;;;;;;;33.40;21.25;;;;;;;;;;6242485;28;20630;-60
2023/09/11 06:13:17;;;;;;;34.07;23.20;;;;;;;;;;6251885;28;20563;-60
2023/09/11 06:16:18;;;;;;;35.73;22.40;;;;;;;;;;6244707;28;20065;-60
2023/09/11 06:19:18;;;;;;;34.60;22.33;;;;;;;;;;6251609;28;20183;-60
2023/09/11 06:22:19;;;;;;;37.20;21.73;;;;;;;;;;6234197;28;20049;-60
2023/09/11 06:25:20;;;;;;;35.60;21.90;;;;;;;;;;6249573;28;20049;-60
2023/09/11 06:28:20;;;;;;;32.60;20.00;;;;;;;;;;6263444;28;20423;-59
2023/09/11 06:31:22;;;;;;;34.60;20.53;;;;;;;;;;6257827;28;20045;-61
2023/09/11 06:34:23;;;;;;;32.97;20.02;;;;;;;;;;6252383;28;20048;-60
2023/09/11 06:37:24;;;;;;;36.07;20.33;;;;;;;;;;6255975;28;20142;-60
2023/09/11 06:40:24;;;;;;;28.70;18.63;;;;;;;;;;6230558;28;20091;-60
2023/09/11 06:43:25;;;;;;;29.53;18.43;;;;;;;;;;6256087;28;20045;-60
2023/09/11 06:46:25;;;;;;;26.50;17.57;;;;;;;;;;6257941;28;20053;-60
2023/09/11 06:49:26;;;;;;;24.07;16.60;;;;;;;;;;6248935;28;20084;-60
2023/09/11 06:52:26;;;;;;;23.07;16.23;;;;;;;;;;6247051;28;20404;-60
2023/09/11 06:55:27;;;;;;;26.00;16.40;;;;;;;;;;6247250;28;20129;-60
2023/09/11 06:58:27;;;;;;;27.57;16.47;;;;;;;;;;6258182;28;20053;-60
2023/09/11 07:01:30;;;;;;;27.37;16.53;;;;;;;;;;6249888;28;20450;-60
2023/09/11 07:04:31;;;;;;;26.10;16.35;;;;;;;;;;6249829;28;20049;-60
2023/09/11 07:07:31;;;;;;;26.73;16.17;;;;;;;;;;6252731;28;20052;-61
2023/09/11 07:10:32;;;;;;;24.47;15.80;;;;;;;;;;6255481;28;20391;-59
2023/09/11 07:13:32;;;;;;;22.27;15.30;;;;;;;;;;6250902;28;20582;-60
2023/09/11 07:16:33;;;;;;;24.47;15.17;;;;;;;;;;6255434;28;20091;-60
2023/09/11 07:19:34;;;;;;;25.03;14.70;;;;;;;;;;6255371;28;20046;-60
2023/09/11 07:22:34;;;;;;;25.20;14.97;;;;;;;;;;6253385;28;20403;-60
2023/09/11 07:25:35;;;;;;;25.30;15.83;;;;;;;;;;6243093;28;20067;-60
2023/09/11 07:28:54;;;;;;;22.90;15.43;;;;;;;;;;6246293;28;20049;-60
2023/09/11 07:31:55;;;;;;;25.60;13.63;;;;;;;;;;6258843;28;21800;-60
2023/09/11 07:34:58;;;;;;;21.43;14.43;;;;;;;;;;6259676;28;20041;-60
2023/09/11 07:37:59;;;;;;;21.73;13.77;;;;;;;;;;6254813;28;20044;-60
2023/09/11 07:40:59;;;;;;;16.93;13.17;;;;;;;;;;6259196;28;20033;-61
2023/09/11 07:44:00;;;;;;;20.90;13.77;;;;;;;;;;6255953;28;20072;-60
2023/09/11 07:47:01;;;;;;;18.60;13.77;;;;;;;;;;6260226;28;20127;-60
2023/09/11 07:50:01;;;;;;;23.50;14.13;;;;;;;;;;6255487;28;20407;-61
2023/09/11 07:53:02;;;;;;;21.27;14.07;;;;;;;;;;6258012;28;20064;-60
2023/09/11 07:56:06;;;;;;;18.43;13.43;;;;;;;;;;6255883;28;20064;-61
2023/09/11 07:59:07;;;;;;;20.25;13.93;;;;;;;;;;6259987;28;20095;-61
2023/09/11 08:02:08;;;;;;;17.60;13.27;;;;;;;;;;6256790;28;20135;-60
2023/09/11 08:05:08;;;;;;;17.87;13.50;;;;;;;;;;6257117;28;20483;-61
2023/09/11 08:08:09;;;;;;;22.23;13.43;;;;;;;;;;6256633;28;20040;-60
2023/09/11 08:11:20;;;;;;;18.37;12.37;;;;;;;;;;6257797;28;20072;-60
2023/09/11 08:14:22;;;;;;;18.08;11.50;;;;;;;;;;6252670;28;20074;-61
2023/09/11 08:17:24;;;;;;;18.15;12.18;;;;;;;;;;6255886;28;20099;-61
2023/09/11 08:20:24;;;;;;;15.60;12.40;;;;;;;;;;6256960;28;20041;-60
2023/09/11 08:23:25;;;;;;;17.40;12.70;;;;;;;;;;6258711;28;20477;-60
2023/09/11 08:26:26;;;;;;;19.70;12.97;;;;;;;;;;6263446;28;20080;-61
2023/09/11 08:29:26;;;;;;;20.30;12.97;;;;;;;;;;6243091;28;20126;-60
2023/09/11 08:32:27;;;;;;;21.47;12.90;;;;;;;;;;6239982;28;20150;-61
2023/09/11 08:35:28;;;;;;;17.75;12.80;;;;;;;;;;6242960;28;20072;-60
2023/09/11 08:38:29;;;;;;;20.13;13.20;;;;;;;;;;6237447;28;20057;-60
2023/09/11 08:41:31;;;;;;;16.67;13.10;;;;;;;;;;6248595;28;20045;-61
2023/09/11 08:44:32;;;;;;;23.58;13.25;;;;;;;;;;6239144;28;20116;-60
2023/09/11 08:47:34;;;;;;;19.30;13.77;;;;;;;;;;6241948;28;20053;-60
2023/09/11 08:50:37;;;;;;;23.50;13.45;;;;;;;;;;6245596;28;20045;-61
2023/09/11 08:53:41;;;;;;;16.77;12.13;;;;;;;;;;6260188;28;20053;-61
2023/09/11 08:56:43;;;;;;;18.73;13.63;;;;;;;;;;6247540;28;20116;-60
2023/09/11 08:59:44;;;;;;;19.90;14.07;;;;;;;;;;6237865;28;20052;-61
2023/09/11 09:02:45;;;;;;;19.45;13.93;;;;;;;;;;6242359;28;20563;-61
2023/09/11 09:05:46;;;;;;;19.17;14.45;;;;;;;;;;6240614;28;20140;-61
2023/09/11 09:08:48;;;;;;;22.60;15.30;;;;;;;;;;6239506;28;20057;-60
2023/09/11 09:11:49;;;;;;;;;;;;;;;;;;6239738;28;20088;-61
2023/09/11 09:14:50;;;;;;;20.13;13.10;;;;;;;;;;6237932;28;19921;-60
2023/09/11 09:17:50;;;;;;;19.43;13.80;;;;;;;;;;6250644;28;20111;-60
2023/09/11 09:20:51;;;;;;;21.92;14.25;;;;;;;;;;6244137;28;20387;-60
2023/09/11 09:23:52;;;;;;;18.93;14.03;;;;;;;;;;6247118;28;20455;-60
2023/09/11 09:27:02;;;;;;;19.40;13.90;;;;;;;;;;6239765;28;20053;-61
2023/09/11 09:30:03;;;;;;;21.25;15.18;;;;;;;;;;6238549;28;20048;-61
2023/09/11 09:33:14;;;;;;;21.25;15.05;;;;;;;;;;6240052;28;20045;-60
2023/09/11 09:36:15;;;;;;;21.17;14.32;;;;;;;;;;6242283;28;20057;-61
2023/09/11 09:39:16;;;;;;;22.73;14.75;;;;;;;;;;6240373;28;20713;-63
2023/09/11 09:42:17;;;;;;;18.83;14.70;;;;;;;;;;6247951;28;20298;-58
2023/09/11 09:45:39;;;;;;;20.20;14.32;;;;;;;;;;6242032;28;20132;-61
2023/09/11 09:48:40;;;;;;;17.42;14.60;;;;;;;;;;6238942;28;20830;-61
2023/09/11 09:51:47;;;;;;;19.13;14.50;;;;;;;;;;6239372;28;20047;-60
2023/09/11 09:54:49;;;;;;;17.85;13.65;;;;;;;;;;6240920;28;20053;-61
2023/09/11 09:57:50;;;;;;;18.30;13.90;;;;;;;;;;6242589;28;20049;-60
2023/09/11 10:01:17;;;;;;;20.00;14.23;;;;;;;;;;6242805;28;20054;-61
2023/09/11 10:04:19;;;;;;;18.90;13.82;;;;;;;;;;6243581;28;20148;-60
2023/09/11 10:07:43;;;;;;;22.63;14.23;;;;;;;;;;6245748;28;21187;-62
2023/09/11 10:10:44;;;;;;;18.92;13.80;;;;;;;;;;6242161;28;20841;-62
2023/09/11 10:13:45;;;;;;;19.73;15.00;;;;;;;;;;6254575;28;20049;-61
2023/09/11 10:16:46;;;;;;;18.73;14.32;;;;;;;;;;6268558;28;20045;-61
2023/09/11 10:19:47;;;;;;;19.70;13.60;;;;;;;;;;6268052;28;20403;-61
2023/09/11 10:22:52;;;;;;;18.58;13.10;;;;;;;;;;6266488;28;20044;-61
2023/09/11 10:26:01;;;;;;;16.05;12.82;;;;;;;;;;6252130;28;20045;-61
2023/09/11 10:29:11;;;;;;;17.48;12.32;;;;;;;;;;6243099;28;20524;-59
2023/09/11 10:32:18;;;;;;;18.02;12.65;;;;;;;;;;6243380;28;20554;-60
2023/09/11 10:35:20;;;;;;;17.85;12.68;;;;;;;;;;6240641;28;20737;-61
2023/09/11 10:38:21;;;;;;;16.92;12.50;;;;;;;;;;6241239;28;20049;-61
2023/09/11 10:41:22;;;;;;;16.13;11.35;;;;;;;;;;6244261;28;20140;-61
2023/09/11 10:44:22;;;;;;;19.00;12.23;;;;;;;;;;6241486;28;20045;-60
2023/09/11 10:47:26;;;;;;;16.70;12.13;;;;;;;;;;6245759;28;20044;-65
2023/09/11 10:50:35;;;;;;;18.98;12.35;;;;;;;;;;6243112;28;20428;-61
2023/09/11 10:53:35;;;;;;;14.35;11.27;;;;;;;;;;6240355;28;20057;-60
2023/09/11 10:56:36;;;;;;;16.50;11.23;;;;;;;;;;6248681;28;20041;-61
2023/09/11 10:59:38;;;;;;;16.33;12.05;;;;;;;;;;6242299;28;20155;-61
2023/09/11 11:02:38;;;;;;;;;;;;;;;;;;6241725;28;20593;-62
2023/09/11 11:05:39;;;;;;;14.23;10.97;;;;;;;;;;6245767;28;19921;-60
2023/09/11 11:08:41;;;;;;;17.77;12.30;;;;;;;;;;6241879;28;20053;-60
2023/09/11 11:11:42;;;;;;;15.40;11.07;;;;;;;;;;6249621;28;20049;-61
2023/09/11 11:14:43;;;;;;;18.08;11.98;;;;;;;;;;6243373;28;20045;-61
2023/09/11 11:17:44;;;;;;;;;;;;;;;;;;6245432;28;20048;-61
2023/09/11 11:20:59;;;;;;;16.37;11.27;;;;;;;;;;6243387;28;19921;-61
2023/09/11 11:24:04;;;;;;;15.70;11.75;;;;;;;;;;6247699;28;20403;-61
2023/09/11 11:27:08;;;;;;;16.55;11.35;;;;;;;;;;6252138;28;20562;-64
2023/09/11 11:30:09;;;;;;;18.80;12.15;;;;;;;;;;6250740;28;20049;-60
2023/09/11 11:33:14;;;;;;;19.52;11.45;;;;;;;;;;6242082;28;20412;-61
2023/09/11 11:36:16;;;;;;;13.20;10.40;;;;;;;;;;6248449;28;20079;-61
2023/09/11 11:39:17;;;;;;;14.52;10.40;;;;;;;;;;6239519;28;20506;-61
2023/09/11 11:42:19;;;;;;;19.88;11.85;;;;;;;;;;6240521;28;20047;-61
2023/09/11 11:45:20;;;;;;;15.45;11.23;;;;;;;;;;6244124;28;20126;-61
2023/09/11 11:48:21;;;;;;;15.13;10.70;;;;;;;;;;6242996;28;20053;-61
2023/09/11 11:51:30;;;;;;;18.08;10.95;;;;;;;;;;6250168;28;20037;-61
2023/09/11 11:54:33;;;;;;;16.13;11.40;;;;;;;;;;6242244;28;20041;-62
2023/09/11 11:57:34;;;;;;;17.88;11.32;;;;;;;;;;6244423;28;20554;-62
2023/09/11 12:00:35;;;;;;;14.82;10.93;;;;;;;;;;6241018;28;20632;-61
2023/09/11 12:03:44;;;;;;;;;;;;;;;;;;6241178;28;20428;-60
2023/09/11 12:06:45;;;;;;;16.80;11.27;;;;;;;;;;6239961;28;20546;-61
2023/09/11 12:09:46;;;;;;;15.50;11.80;;;;;;;;;;6240320;28;20041;-61
2023/09/11 12:12:47;;;;;;;14.60;11.48;;;;;;;;;;6244717;28;20046;-61
2023/09/11 12:16:05;;;;;;;19.23;11.77;;;;;;;;;;6246520;28;20053;-59
2023/09/11 12:19:07;;;;;;;18.95;11.75;;;;;;;;;;6239820;28;21073;-61
2023/09/11 12:22:09;;;;;;;17.42;12.25;;;;;;;;;;6250016;28;20045;-61
2023/09/11 12:25:11;;;;;;;18.02;11.88;;;;;;;;;;6242237;28;20056;-60
2023/09/11 12:28:12;;;;;;;16.45;11.70;;;;;;;;;;6239749;28;20042;-61
2023/09/11 12:31:12;;;;;;;15.65;11.32;;;;;;;;;;6251491;28;20055;-61
2023/09/11 12:34:13;;;;;;;20.57;12.37;;;;;;;;;;6240266;28;20045;-60
2023/09/11 12:37:14;;;;;;;16.88;11.70;;;;;;;;;;6242484;28;20183;-61
2023/09/11 12:40:14;;;;;;;21.67;12.00;;;;;;;;;;6240897;28;20044;-61
2023/09/11 12:43:15;;;;;;;21.15;11.55;;;;;;;;;;6239661;28;20144;-60
2023/09/11 12:46:16;;;;;;;15.75;11.40;;;;;;;;;;6240264;28;20042;-60
2023/09/11 12:49:17;;;;;;;14.57;10.52;;;;;;;;;;6243091;28;20583;-60
2023/09/11 12:52:22;;;;;;;14.07;10.77;;;;;;;;;;6241155;28;20061;-60
2023/09/11 12:55:23;;;;;;;16.30;10.80;;;;;;;;;;6239861;28;20043;-60
2023/09/11 12:58:23;;;;;;;16.63;11.93;;;;;;;;;;6238883;28;20041;-60
2023/09/11 13:01:31;;;;;;;14.27;11.02;;;;;;;;;;6243126;28;20302;-60
2023/09/11 13:04:33;;;;;;;16.08;11.45;;;;;;;;;;6239133;28;20100;-61
2023/09/11 13:07:37;;;;;;;18.15;12.18;;;;;;;;;;6239799;28;20514;-61
2023/09/11 13:10:37;;;;;;;19.08;12.20;;;;;;;;;;6243752;28;20044;-60
2023/09/11 13:13:39;;;;;;;16.60;11.88;;;;;;;;;;6238733;28;20060;-60
2023/09/11 13:16:43;;;;;;;17.88;11.75;;;;;;;;;;6238917;28;20041;-60
2023/09/11 13:19:44;;;;;;;17.92;11.52;;;;;;;;;;6237813;28;20072;-60
2023/09/11 13:22:44;;;;;;;19.50;12.07;;;;;;;;;;6250798;28;20411;-60
2023/09/11 13:25:45;;;;;;;17.13;11.88;;;;;;;;;;6251118;28;20102;-59
2023/09/11 13:28:46;;;;;;;15.57;11.48;;;;;;;;;;6238130;28;20048;-60
2023/09/11 13:31:47;;;;;;;16.30;12.35;;;;;;;;;;6241247;28;20496;-59
2023/09/11 13:34:47;;;;;;;18.90;11.93;;;;;;;;;;6240030;28;20053;-60
2023/09/11 13:37:48;;;;;;;19.80;12.63;;;;;;;;;;6242876;28;20516;-60
2023/09/11 13:40:48;;;;;;;16.63;11.67;;;;;;;;;;6247299;28;20099;-60
2023/09/11 13:43:50;;;;;;;18.98;12.75;;;;;;;;;;6240888;28;20046;-61
2023/09/11 13:46:51;;;;;;;16.90;12.05;;;;;;;;;;6242645;28;20069;-60
2023/09/11 13:49:52;;;;;;;16.42;12.35;;;;;;;;;;6238625;28;20048;-61
2023/09/11 13:52:52;;;;;;;19.20;12.80;;;;;;;;;;6250621;28;20055;-60
2023/09/11 13:55:53;;;;;;;18.48;13.35;;;;;;;;;;6242968;28;20715;-60
2023/09/11 13:58:53;;;;;;;29.77;12.97;;;;;;;;;;6239753;28;20049;-60
2023/09/11 14:01:54;;;;;;;17.63;12.80;;;;;;;;;;6244534;28;20136;-60
2023/09/11 14:04:55;;;;;;;17.60;12.63;;;;;;;;;;6220926;28;20057;-60
2023/09/11 14:07:55;;;;;;;;;;;;;;;;;;6236538;28;20041;-62
2023/09/11 14:10:56;;;;;;;21.43;13.27;;;;;;;;;;6243266;28;20296;-62
2023/09/11 14:13:57;;;;;;;18.90;12.65;;;;;;;;;;6238776;28;20048;-60
2023/09/11 14:16:57;;;;;;;19.87;13.00;;;;;;;;;;6236826;28;20045;-61
2023/09/11 14:19:58;;;;;;;23.23;13.75;;;;;;;;;;6239969;28;20091;-61
2023/09/11 14:22:58;;;;;;;21.90;12.70;;;;;;;;;;6250497;28;20052;-60
2023/09/11 14:25:59;;;;;;;20.35;13.43;;;;;;;;;;6245647;28;20306;-61
2023/09/11 14:29:00;;;;;;;18.20;13.43;;;;;;;;;;6236339;28;20119;-61
2023/09/11 14:32:00;;;;;;;16.85;13.57;;;;;;;;;;6250109;28;20046;-60
2023/09/11 14:35:01;;;;;;;18.23;13.25;;;;;;;;;;6240791;28;20047;-60
2023/09/11 14:38:02;;;;;;;22.80;13.52;;;;;;;;;;6262011;28;20106;-60
2023/09/11 14:41:03;;;;;;;20.00;13.90;;;;;;;;;;6262975;28;20040;-60
2023/09/11 14:44:04;;;;;;;18.38;13.57;;;;;;;;;;6261683;28;20482;-59
2023/09/11 14:47:04;;;;;;;17.20;14.07;;;;;;;;;;6258073;28;20052;-60
2023/09/11 14:50:08;;;;;;;20.02;13.38;;;;;;;;;;6265532;28;20135;-61
2023/09/11 14:53:14;;;;;;;19.05;13.68;;;;;;;;;;6259819;28;20139;-60
2023/09/11 14:56:15;;;;;;;17.13;13.68;;;;;;;;;;6253065;28;20060;-60
2023/09/11 14:59:16;;;;;;;18.10;13.88;;;;;;;;;;6247528;28;20045;-60
2023/09/11 15:02:16;;;;;;;18.77;13.68;;;;;;;;;;6253426;28;20403;-60
2023/09/11 15:05:17;;;;;;;18.75;13.88;;;;;;;;;;6252132;28;20056;-61
2023/09/11 15:08:18;;;;;;;21.98;13.77;;;;;;;;;;6251468;28;20053;-59
2023/09/11 15:11:18;;;;;;;18.23;14.13;;;;;;;;;;6249393;28;20045;-58
2023/09/11 15:14:19;;;;;;;18.70;13.93;;;;;;;;;;6253518;28;20053;-59
2023/09/11 15:17:19;;;;;;;18.73;14.10;;;;;;;;;;6247954;28;20481;-60
2023/09/11 15:20:20;;;;;;;22.10;14.38;;;;;;;;;;6249931;28;20045;-61
2023/09/11 15:23:20;;;;;;;28.83;14.50;;;;;;;;;;6254101;28;20052;-59
2023/09/11 15:26:21;;;;;;;20.15;14.25;;;;;;;;;;6249713;28;20048;-60
2023/09/11 15:29:22;;;;;;;18.87;14.53;;;;;;;;;;6254253;28;20099;-60
2023/09/11 15:32:22;;;;;;;20.40;14.35;;;;;;;;;;6251622;28;20053;-59
2023/09/11 15:35:23;;;;;;;20.48;14.77;;;;;;;;;;6248131;28;20052;-62
2023/09/11 15:38:24;;;;;;;22.40;14.88;;;;;;;;;;6247303;28;20114;-59
2023/09/11 15:41:24;;;;;;;19.77;14.03;;;;;;;;;;6250690;28;20048;-62
2023/09/11 15:44:25;;;;;;;21.38;13.85;;;;;;;;;;6254221;28;20051;-62
2023/09/11 15:47:25;;;;;;;18.10;14.07;;;;;;;;;;6249666;28;20967;-61
2023/09/11 15:50:26;;;;;;;20.10;14.70;;;;;;;;;;6248680;28;20076;-61
2023/09/11 15:53:28;;;;;;;17.20;14.10;;;;;;;;;;6219806;28;1051595;-62
2023/09/11 15:56:29;;;;;;;19.58;14.48;;;;;;;;;;6245623;28;20481;-59
2023/09/11 15:59:30;;;;;;;19.93;14.67;;;;;;;;;;6246846;28;20048;-60
2023/09/11 16:02:30;;;;;;;20.27;14.18;;;;;;;;;;6253585;28;20041;-58
2023/09/11 16:05:31;;;;;;;18.40;13.70;;;;;;;;;;6247630;28;20049;-59
2023/09/11 16:08:32;;;;;;;21.58;14.20;;;;;;;;;;6253645;28;20037;-58
2023/09/11 16:11:32;;;;;;;18.45;13.93;;;;;;;;;;6250475;28;20064;-59
2023/09/11 16:14:33;;;;;;;22.05;14.07;;;;;;;;;;6254393;28;20674;-59
2023/09/11 16:17:34;;;;;;;22.10;13.90;;;;;;;;;;6250583;28;20048;-59
2023/09/11 16:20:37;;;;;;;20.75;14.70;;;;;;;;;;6253722;28;20037;-58
2023/09/11 16:23:41;;;;;;;20.08;15.50;;;;;;;;;;6252779;28;20049;-59
2023/09/11 16:26:41;;;;;;;24.30;14.85;;;;;;;;;;6249860;28;20117;-59
2023/09/11 16:29:42;;;;;;;24.23;15.07;;;;;;;;;;6246134;28;20538;-59
2023/09/11 16:32:43;;;;;;;23.42;14.77;;;;;;;;;;6249779;28;20147;-61
2023/09/11 16:35:44;;;;;;;;;;;;;;;;;;6249723;28;20478;-60
2023/09/11 16:38:45;;;;;;;18.33;14.20;;;;;;;;;;6253223;28;19928;-61
2023/09/11 16:41:45;;;;;;;19.27;14.07;;;;;;;;;;6254814;28;20388;-61
2023/09/11 16:44:46;;;;;;;17.53;14.03;;;;;;;;;;6248374;28;21680;-60
2023/09/11 16:47:46;;;;;;;17.37;14.13;;;;;;;;;;6249459;28;20049;-60
2023/09/11 16:50:47;;;;;;;20.40;14.68;;;;;;;;;;6252315;28;20083;-61
2023/09/11 16:53:48;;;;;;;23.53;14.97;;;;;;;;;;6251484;28;20057;-60
2023/09/11 16:56:48;;;;;;;29.83;16.25;;;;;;;;;;6251906;28;20076;-60
2023/09/11 16:59:49;;;;;;;23.17;15.53;;;;;;;;;;6245487;28;20596;-61
2023/09/11 17:02:50;;;;;;;23.27;15.35;;;;;;;;;;6245418;28;20496;-61
2023/09/11 17:05:51;;;;;;;22.38;14.70;;;;;;;;;;6252895;28;20056;-60
2023/09/11 17:08:51;;;;;;;23.07;15.87;;;;;;;;;;6247280;28;20906;-61
2023/09/11 17:11:52;;;;;;;19.23;14.93;;;;;;;;;;6250999;28;20048;-60
2023/09/11 17:14:52;;;;;;;22.80;15.50;;;;;;;;;;6253031;28;20091;-61
2023/09/11 17:17:53;;;;;;;18.43;14.20;;;;;;;;;;6249540;28;20085;-62
2023/09/11 17:20:55;;;;;;;25.63;16.40;;;;;;;;;;6246155;28;20041;-61
2023/09/11 17:23:55;;;;;;;23.77;15.65;;;;;;;;;;6252289;28;20044;-61
2023/09/11 17:26:56;;;;;;;23.40;16.00;;;;;;;;;;6248862;28;20088;-61
2023/09/11 17:29:57;;;;;;;23.47;16.33;;;;;;;;;;6245797;28;20496;-65
2023/09/11 17:32:57;;;;;;;27.40;17.10;;;;;;;;;;6247950;28;20804;-62
2023/09/11 17:35:58;;;;;;;22.70;17.00;;;;;;;;;;6249809;28;20055;-64
2023/09/11 17:38:59;;;;;;;;;;;;;;;;;;6247976;28;20456;-62
2023/09/11 17:42:00;;;;;;;29.03;17.80;;;;;;;;;;6248888;28;19925;-61